createdAt,value
2018-04-29T00:00:05.070Z,10.57
2018-04-29T00:02:34.073Z,11.40
2018-04-29T00:05:02.730Z,9.70
2018-04-29T00:07:31.788Z,10.40
2018-04-29T00:10:01.029Z,9.70
2018-04-29T00:12:30.028Z,11.20
2018-04-29T00:14:59.547Z,9.23
2018-04-29T00:17:28.787Z,10.60
2018-04-29T00:19:57.468Z,9.57
2018-04-29T00:22:25.708Z,10.20
2018-04-29T00:24:54.227Z,9.23
2018-04-29T00:27:23.207Z,10.10
2018-04-29T00:29:51.448Z,9.60
2018-04-29T00:32:21.147Z,10.13
2018-04-29T00:34:50.187Z,10.10
2018-04-29T00:37:19.447Z,10.70
2018-04-29T00:39:49.448Z,10.70
2018-04-29T00:42:18.436Z,10.03
2018-04-29T00:44:47.447Z,9.73
2018-04-29T00:47:16.190Z,11.53
2018-04-29T00:49:45.971Z,10.53
2018-04-29T00:52:15.189Z,10.00
2018-04-29T00:54:44.428Z,9.93
2018-04-29T00:57:13.012Z,9.17
2018-04-29T00:59:42.168Z,8.67
2018-04-29T01:02:11.417Z,9.60
2018-04-29T01:04:41.167Z,10.20
2018-04-29T01:07:09.941Z,10.03
2018-04-29T01:09:38.908Z,9.03
2018-04-29T01:12:07.908Z,10.00
2018-04-29T01:14:37.151Z,9.00
2018-04-29T01:17:05.627Z,9.70
2018-04-29T01:19:34.468Z,8.63
2018-04-29T01:22:03.627Z,9.20
2018-04-29T01:24:32.047Z,8.70
2018-04-29T01:27:01.108Z,9.40
2018-04-29T01:29:30.088Z,9.30
2018-04-29T01:31:59.350Z,9.07
2018-04-29T01:34:27.827Z,10.30
2018-04-29T01:36:57.307Z,9.47
2018-04-29T01:39:26.388Z,8.70
2018-04-29T01:41:55.327Z,8.80
2018-04-29T01:44:25.588Z,8.57
2018-04-29T01:46:56.107Z,8.70
2018-04-29T01:49:25.144Z,8.60
2018-04-29T01:51:54.209Z,8.80
2018-04-29T01:54:23.108Z,9.00
2018-04-29T01:56:51.589Z,8.77
2018-04-29T01:59:21.067Z,8.67
2018-04-29T02:01:50.308Z,8.30
2018-04-29T02:04:19.588Z,8.57
2018-04-29T02:06:49.068Z,9.40
2018-04-29T02:09:18.088Z,9.07
2018-04-29T02:11:47.308Z,8.70
2018-04-29T02:14:15.808Z,8.57
2018-04-29T02:16:45.327Z,8.90
2018-04-29T02:19:14.288Z,9.60
2018-04-29T02:21:43.028Z,10.00
2018-04-29T02:24:11.549Z,9.40
2018-04-29T02:26:41.808Z,9.10
2018-04-29T02:29:11.050Z,9.07
2018-04-29T02:31:40.829Z,8.83
2018-04-29T02:34:09.789Z,8.37
2018-04-29T02:36:39.029Z,8.67
2018-04-29T02:39:08.029Z,8.20
2018-04-29T02:41:36.469Z,8.47
2018-04-29T02:44:05.787Z,7.77
2018-04-29T02:46:35.029Z,8.20
2018-04-29T02:49:04.331Z,7.73
2018-04-29T02:51:33.529Z,8.40
2018-04-29T02:54:02.909Z,12.83
2018-04-29T02:56:32.529Z,11.67
2018-04-29T02:59:00.990Z,11.00
2018-04-29T03:01:29.728Z,9.90
2018-04-29T03:03:58.989Z,9.60
2018-04-29T03:06:28.229Z,8.80
2018-04-29T03:08:56.728Z,8.30
2018-04-29T03:11:25.968Z,8.50
2018-04-29T03:13:55.669Z,8.20
2018-04-29T03:16:24.249Z,8.50
2018-04-29T03:18:52.829Z,7.67
2018-04-29T03:21:21.369Z,7.43
2018-04-29T03:23:49.912Z,7.53
2018-04-29T03:26:18.668Z,7.93
2018-04-29T03:28:48.648Z,7.40
2018-04-29T03:31:17.929Z,8.00
2018-04-29T03:33:47.688Z,12.27
2018-04-29T03:36:16.929Z,8.10
2018-04-29T03:38:45.789Z,7.83
2018-04-29T03:41:14.134Z,7.20
2018-04-29T03:43:42.468Z,7.40
2018-04-29T03:46:12.148Z,7.63
2018-04-29T03:48:41.628Z,7.77
2018-04-29T03:51:10.389Z,7.77
2018-04-29T03:53:39.899Z,8.30
2018-04-29T03:56:08.628Z,7.60
2018-04-29T03:58:48.888Z,7.80
2018-04-29T04:04:20.387Z,7.87
2018-04-29T04:06:49.148Z,8.70
2018-04-29T04:09:17.868Z,8.07
2018-04-29T04:11:46.348Z,8.10
2018-04-29T04:14:14.448Z,7.60
2018-04-29T04:16:43.588Z,8.67
2018-04-29T04:19:12.388Z,8.70
2018-04-29T04:21:41.548Z,8.37
2018-04-29T04:24:10.568Z,8.77
2018-04-29T04:26:39.550Z,8.73
2018-04-29T04:29:08.548Z,8.83
2018-04-29T04:31:38.328Z,9.63
2018-04-29T04:34:07.627Z,9.60
2018-04-29T04:36:37.888Z,9.70
2018-04-29T04:39:06.588Z,9.43
2018-04-29T04:41:35.288Z,8.30
2018-04-29T04:44:04.108Z,7.90
2018-04-29T04:46:33.028Z,7.93
2018-04-29T04:49:02.028Z,8.50
2018-04-29T04:51:31.268Z,7.90
2018-04-29T04:53:59.768Z,8.27
2018-04-29T04:56:28.748Z,8.37
2018-04-29T04:58:57.727Z,7.77
2018-04-29T05:01:26.987Z,8.30
2018-04-29T05:03:55.467Z,8.00
2018-04-29T05:06:24.708Z,9.60
2018-04-29T05:08:53.468Z,7.87
2018-04-29T05:11:22.948Z,8.30
2018-04-29T05:13:51.932Z,8.10
2018-04-29T05:16:20.693Z,8.60
2018-04-29T05:18:50.191Z,7.60
2018-04-29T05:21:19.208Z,9.73
2018-04-29T05:23:47.931Z,8.40
2018-04-29T05:26:16.668Z,8.40
2018-04-29T05:28:45.927Z,8.03
2018-04-29T05:31:15.375Z,8.03
2018-04-29T05:33:44.088Z,8.13
2018-04-29T05:36:12.388Z,9.20
2018-04-29T05:38:41.628Z,9.60
2018-04-29T05:41:10.154Z,8.67
2018-04-29T05:43:39.837Z,8.73
2018-04-29T05:46:08.348Z,9.43
2018-04-29T05:48:36.828Z,9.93
2018-04-29T05:51:06.369Z,9.87
2018-04-29T05:53:36.351Z,9.63
2018-04-29T05:56:06.367Z,9.80
2018-04-29T05:58:35.089Z,10.63
2018-04-29T06:01:04.609Z,9.97
2018-04-29T06:03:34.270Z,9.17
2018-04-29T06:06:02.869Z,9.97
2018-04-29T06:08:32.671Z,11.13
2018-04-29T06:11:01.969Z,10.80
2018-04-29T06:13:30.589Z,10.00
2018-04-29T06:16:00.110Z,11.43
2018-04-29T06:18:29.350Z,10.57
2018-04-29T06:20:57.910Z,10.80
2018-04-29T06:23:26.269Z,10.87
2018-04-29T06:25:55.456Z,10.60
2018-04-29T06:28:25.329Z,11.10
2018-04-29T06:30:53.789Z,10.37
2018-04-29T06:33:22.549Z,10.10
2018-04-29T06:35:51.070Z,10.87
2018-04-29T06:38:20.029Z,10.20
2018-04-29T06:40:49.010Z,10.57
2018-04-29T06:43:18.269Z,10.63
2018-04-29T06:45:46.936Z,10.37
2018-04-29T06:48:16.269Z,10.60
2018-04-29T06:50:45.530Z,10.00
2018-04-29T06:53:14.749Z,10.70
2018-04-29T06:55:44.510Z,11.60
2018-04-29T06:58:14.014Z,10.27
2018-04-29T07:00:43.338Z,10.50
2018-04-29T07:03:12.269Z,10.40
2018-04-29T07:05:41.610Z,10.30
2018-04-29T07:08:11.041Z,8.60
2018-04-29T07:10:40.010Z,9.50
2018-04-29T07:13:08.689Z,9.40
2018-04-29T07:15:37.478Z,9.03
2018-04-29T07:18:06.744Z,9.50
2018-04-29T07:20:35.470Z,7.63
2018-04-29T07:23:04.729Z,8.77
2018-04-29T07:25:33.790Z,8.30
2018-04-29T07:28:02.221Z,7.23
2018-04-29T07:30:31.350Z,8.23
2018-04-29T07:33:00.173Z,7.43
2018-04-29T07:35:29.452Z,7.97
2018-04-29T07:37:58.430Z,6.47
2018-04-29T07:40:27.671Z,5.30
2018-04-29T07:42:57.090Z,3.93
2018-04-29T07:45:26.430Z,4.43
2018-04-29T07:47:55.150Z,4.70
2018-04-29T07:50:24.670Z,4.03
2018-04-29T07:52:54.190Z,3.83
2018-04-29T07:55:23.190Z,4.07
2018-04-29T07:57:52.670Z,4.53
2018-04-29T08:00:21.152Z,3.90
2018-04-29T08:02:50.160Z,4.30
2018-04-29T08:05:19.390Z,3.93
2018-04-29T08:07:48.250Z,4.07
2018-04-29T08:10:17.629Z,4.17
2018-04-29T08:12:46.371Z,3.90
2018-04-29T08:15:15.111Z,4.17
2018-04-29T08:17:44.630Z,4.20
2018-04-29T08:20:13.610Z,4.30
2018-04-29T08:22:42.898Z,4.37
2018-04-29T08:25:11.537Z,4.43
2018-04-29T08:27:40.876Z,4.17
2018-04-29T08:30:10.196Z,4.10
2018-04-29T08:32:38.830Z,4.10
2018-04-29T08:35:07.831Z,3.70
2018-04-29T08:37:36.829Z,3.93
2018-04-29T08:40:06.096Z,4.90
2018-04-29T08:42:34.813Z,5.93
2018-04-29T08:45:04.051Z,4.10
2018-04-29T08:47:33.051Z,4.80
2018-04-29T08:50:02.311Z,4.70
2018-04-29T08:52:31.230Z,4.40
2018-04-29T08:55:00.345Z,4.67
2018-04-29T08:57:29.191Z,5.70
2018-04-29T08:59:58.015Z,5.00
2018-04-29T09:02:26.712Z,5.30
2018-04-29T09:04:55.771Z,6.73
2018-04-29T09:07:24.672Z,9.67
2018-04-29T09:09:54.011Z,9.40
2018-04-29T09:12:23.271Z,9.73
2018-04-29T09:14:52.992Z,11.37
2018-04-29T09:17:21.731Z,9.97
2018-04-29T09:19:51.230Z,10.77
2018-04-29T09:22:20.270Z,10.00
2018-04-29T09:24:49.751Z,10.80
2018-04-29T09:27:18.751Z,10.47
2018-04-29T09:29:49.010Z,9.97
2018-04-29T09:32:17.731Z,10.47
2018-04-29T09:34:46.751Z,11.33
2018-04-29T09:37:16.063Z,9.70
2018-04-29T09:39:45.011Z,10.00
2018-04-29T09:42:14.092Z,7.97
2018-04-29T09:44:43.211Z,6.60
2018-04-29T09:47:12.472Z,6.97
2018-04-29T09:49:41.970Z,7.43
2018-04-29T09:52:11.230Z,11.40
2018-04-29T09:54:40.229Z,10.03
2018-04-29T09:57:09.133Z,10.10
2018-04-29T09:59:38.450Z,12.93
2018-04-29T10:02:12.150Z,14.27
2018-04-29T10:04:40.552Z,12.13
2018-04-29T10:07:10.049Z,10.80
2018-04-29T10:09:39.099Z,12.37
2018-04-29T10:12:07.350Z,11.47
2018-04-29T10:14:35.756Z,11.40
2018-04-29T10:17:04.990Z,9.97
2018-04-29T10:19:33.650Z,9.90
2018-04-29T10:22:02.456Z,10.97
2018-04-29T10:24:31.711Z,9.67
2018-04-29T10:27:00.471Z,8.40
2018-04-29T10:29:29.290Z,7.27
2018-04-29T10:31:57.650Z,6.57
2018-04-29T10:34:27.450Z,5.10
2018-04-29T10:36:56.010Z,4.23
2018-04-29T10:39:24.749Z,4.80
2018-04-29T10:41:53.150Z,5.90
2018-04-29T10:44:22.631Z,4.63
2018-04-29T10:46:51.438Z,5.50
2018-04-29T10:49:20.370Z,3.40
2018-04-29T10:51:48.610Z,3.70
2018-04-29T10:54:18.113Z,3.80
2018-04-29T10:56:47.541Z,5.30
2018-04-29T10:59:16.831Z,6.70
2018-04-29T11:01:45.850Z,5.63
2018-04-29T11:04:14.930Z,4.20
2018-04-29T11:06:44.090Z,6.70
2018-04-29T11:09:12.931Z,3.77
2018-04-29T11:11:42.345Z,4.07
2018-04-29T11:14:11.612Z,4.60
2018-04-29T11:16:40.831Z,5.23
2018-04-29T11:19:09.558Z,4.97
2018-04-29T11:21:38.570Z,4.67
2018-04-29T11:24:07.832Z,4.80
2018-04-29T11:26:37.074Z,4.30
2018-04-29T11:29:06.269Z,4.20
2018-04-29T11:31:35.310Z,4.67
2018-04-29T11:34:04.310Z,5.00
2018-04-29T11:36:34.191Z,5.00
2018-04-29T11:39:03.569Z,5.73
2018-04-29T11:41:32.054Z,4.47
2018-04-29T11:44:01.070Z,4.07
2018-04-29T11:46:29.531Z,7.20
2018-04-29T11:48:59.290Z,5.70
2018-04-29T11:51:28.531Z,4.97
2018-04-29T11:53:57.390Z,5.40
2018-04-29T11:56:25.910Z,11.50
2018-04-29T11:58:54.989Z,4.90
2018-04-29T12:01:23.850Z,5.50
2018-04-29T12:03:54.731Z,5.53
2018-04-29T12:06:24.291Z,7.30
2018-04-29T12:08:55.589Z,5.30
2018-04-29T12:11:25.849Z,6.40
2018-04-29T12:13:56.510Z,6.07
2018-04-29T12:16:25.677Z,5.47
2018-04-29T12:18:55.389Z,5.20
2018-04-29T12:21:24.670Z,5.20
2018-04-29T12:23:53.910Z,3.97
2018-04-29T12:26:22.709Z,4.77
2018-04-29T12:28:51.214Z,4.47
2018-04-29T12:31:20.629Z,4.60
2018-04-29T12:33:50.624Z,4.87
2018-04-29T12:36:19.468Z,5.37
2018-04-29T12:38:48.109Z,5.30
2018-04-29T12:41:17.154Z,5.57
2018-04-29T12:43:45.909Z,6.60
2018-04-29T12:46:15.229Z,4.83
2018-04-29T12:48:44.069Z,4.90
2018-04-29T12:51:13.629Z,4.70
2018-04-29T12:53:42.649Z,4.90
2018-04-29T12:56:20.820Z,6.03
2018-04-29T12:58:57.012Z,5.20
2018-04-29T13:01:35.232Z,11.93
2018-04-29T13:04:09.148Z,5.17
2018-04-29T13:06:46.739Z,4.40
2018-04-29T13:09:25.458Z,4.80
2018-04-29T13:12:01.940Z,4.77
2018-04-29T13:14:39.699Z,6.00
2018-04-29T13:17:15.260Z,7.60
2018-04-29T13:19:52.664Z,4.73
2018-04-29T13:22:28.033Z,5.20
2018-04-29T13:25:04.980Z,4.97
2018-04-29T13:27:40.593Z,5.60
2018-04-29T13:30:16.660Z,5.20
2018-04-29T13:32:52.338Z,4.83
2018-04-29T13:35:29.354Z,4.83
2018-04-29T13:38:06.100Z,5.70
2018-04-29T13:40:42.900Z,7.63
2018-04-29T13:43:17.461Z,5.73
2018-04-29T13:45:55.541Z,5.67
2018-04-29T13:48:32.658Z,5.33
2018-04-29T13:51:09.306Z,5.30
2018-04-29T13:53:43.953Z,5.13
2018-04-29T13:56:23.060Z,5.57
2018-04-29T13:58:59.232Z,5.50
2018-04-29T14:01:36.978Z,5.60
2018-04-29T14:04:12.818Z,5.70
2018-04-29T14:06:50.272Z,6.50
2018-04-29T14:09:25.460Z,7.90
2018-04-29T14:12:02.260Z,6.03
2018-04-29T14:14:36.760Z,6.10
2018-04-29T14:17:13.619Z,5.33
2018-04-29T14:19:51.413Z,6.10
2018-04-29T14:22:28.338Z,4.93
2018-04-29T14:25:04.020Z,5.27
2018-04-29T14:27:39.058Z,5.60
2018-04-29T14:30:15.211Z,8.33
2018-04-29T14:32:49.458Z,5.83
2018-04-29T14:35:27.631Z,5.03
2018-04-29T14:38:02.260Z,4.97
2018-04-29T14:40:39.891Z,5.30
2018-04-29T14:43:14.848Z,5.30
2018-04-29T14:45:53.300Z,5.83
2018-04-29T14:48:28.500Z,4.77
2018-04-29T14:51:06.097Z,4.50
2018-04-29T14:53:42.773Z,6.27
2018-04-29T14:56:17.297Z,5.80
2018-04-29T14:58:54.751Z,6.90
2018-04-29T15:01:33.138Z,6.87
2018-04-29T15:04:10.113Z,4.87
2018-04-29T15:06:48.980Z,4.90
2018-04-29T15:09:22.899Z,5.10
2018-04-29T15:12:01.299Z,5.10
2018-04-29T15:14:40.979Z,5.50
2018-04-29T15:17:19.381Z,5.07
2018-04-29T15:19:57.777Z,5.53
2018-04-29T15:22:34.896Z,5.60
2018-04-29T15:25:10.627Z,5.47
2018-04-29T15:27:47.090Z,5.37
2018-04-29T15:30:22.739Z,5.77
2018-04-29T15:33:00.820Z,5.20
2018-04-29T15:35:37.943Z,5.30
2018-04-29T15:38:12.119Z,5.80
2018-04-29T15:40:49.300Z,6.07
2018-04-29T15:43:24.500Z,5.50
2018-04-29T15:46:01.939Z,5.00
2018-04-29T15:48:37.617Z,6.10
2018-04-29T15:51:14.839Z,5.33
2018-04-29T15:53:48.832Z,5.13
2018-04-29T15:56:24.826Z,5.53
2018-04-29T15:58:59.861Z,6.07
2018-04-29T16:01:37.299Z,7.00
2018-04-29T16:04:12.193Z,6.27
2018-04-29T16:06:48.982Z,9.50
2018-04-29T16:09:25.091Z,5.77
2018-04-29T16:12:02.904Z,6.50
2018-04-29T16:14:40.020Z,6.00
2018-04-29T16:17:18.098Z,5.90
2018-04-29T16:19:53.622Z,5.07
2018-04-29T16:22:29.919Z,7.70
2018-04-29T16:25:05.778Z,7.50
2018-04-29T16:30:18.578Z,6.40
2018-04-29T16:32:55.059Z,5.33
2018-04-29T16:35:30.899Z,5.23
2018-04-29T16:38:06.160Z,8.60
2018-04-29T16:40:40.803Z,7.90
2018-04-29T16:43:18.419Z,6.80
2018-04-29T16:45:54.260Z,10.40
2018-04-29T16:48:32.179Z,7.50
2018-04-29T16:51:08.179Z,16.73
2018-04-29T16:53:45.623Z,14.60
2018-04-29T16:56:22.419Z,8.37
2018-04-29T16:58:58.604Z,7.33
2018-04-29T17:01:34.951Z,7.20
2018-04-29T17:04:12.980Z,6.80
2018-04-29T17:06:52.180Z,7.10
2018-04-29T17:09:28.032Z,7.37
2018-04-29T17:12:04.819Z,7.07
2018-04-29T17:14:39.867Z,7.40
2018-04-29T17:17:14.693Z,6.47
2018-04-29T17:19:50.420Z,6.50
2018-04-29T17:22:26.581Z,6.77
2018-04-29T17:25:01.257Z,5.90
2018-04-29T17:27:37.633Z,7.13
2018-04-29T17:30:16.985Z,6.20
2018-04-29T17:32:53.460Z,7.00
2018-04-29T17:35:28.830Z,6.70
2018-04-29T17:38:05.530Z,5.57
2018-04-29T17:40:43.218Z,6.70
2018-04-29T17:43:20.660Z,6.33
2018-04-29T17:45:55.016Z,8.23
2018-04-29T17:48:31.698Z,6.40
2018-04-29T17:51:08.819Z,32.07
2018-04-29T17:53:43.880Z,5.93
2018-04-29T17:56:19.030Z,6.70
2018-04-29T17:58:56.339Z,6.13
2018-04-29T18:01:32.180Z,5.97
2018-04-29T18:04:08.979Z,6.17
2018-04-29T18:06:44.668Z,6.17
2018-04-29T18:09:22.260Z,7.30
2018-04-29T18:11:59.700Z,7.47
2018-04-29T18:14:35.540Z,8.17
2018-04-29T18:17:12.662Z,6.83
2018-04-29T18:19:50.419Z,6.57
2018-04-29T18:22:28.180Z,7.03
2018-04-29T18:25:03.060Z,7.90
2018-04-29T18:27:39.240Z,6.60
2018-04-29T18:30:14.744Z,6.80
2018-04-29T18:32:52.819Z,7.23
2018-04-29T18:35:28.211Z,6.90
2018-04-29T18:38:04.338Z,7.57
2018-04-29T18:40:41.300Z,8.57
2018-04-29T18:43:19.744Z,6.57
2018-04-29T18:45:56.499Z,7.77
2018-04-29T18:48:34.274Z,6.63
2018-04-29T18:51:09.893Z,6.83
2018-04-29T18:53:46.581Z,6.60
2018-04-29T18:56:23.380Z,7.00
2018-04-29T18:59:03.059Z,9.70
2018-04-29T19:01:38.599Z,6.20
2018-04-29T19:04:15.060Z,6.70
2018-04-29T19:06:51.543Z,7.03
2018-04-29T19:09:29.941Z,7.20
2018-04-29T19:12:05.808Z,6.80
2018-04-29T19:14:42.940Z,6.40
2018-04-29T19:17:21.226Z,7.13
2018-04-29T19:19:58.100Z,6.47
2018-04-29T19:22:36.200Z,22.03
2018-04-29T19:25:10.691Z,5.97
2018-04-29T19:27:48.183Z,5.63
2018-04-29T19:30:25.621Z,6.33
2018-04-29T19:33:03.858Z,6.70
2018-04-29T19:35:40.500Z,5.70
2018-04-29T19:38:14.743Z,5.87
2018-04-29T19:40:50.581Z,6.20
2018-04-29T19:43:29.940Z,5.60
2018-04-29T19:46:05.332Z,6.00
2018-04-29T19:48:43.094Z,6.60
2018-04-29T19:51:19.712Z,6.40
2018-04-29T19:53:56.822Z,7.07
2018-04-29T19:56:32.983Z,7.87
2018-04-29T19:59:09.786Z,6.33
2018-04-29T20:01:46.261Z,6.10
2018-04-29T20:04:22.099Z,5.80
2018-04-29T20:06:57.799Z,6.43
2018-04-29T20:09:36.339Z,6.60
2018-04-29T20:12:11.868Z,6.30
2018-04-29T20:14:49.620Z,5.50
2018-04-29T20:17:24.819Z,5.60
2018-04-29T20:20:01.620Z,6.53
2018-04-29T20:22:36.820Z,6.50
2018-04-29T20:25:16.833Z,6.10
2018-04-29T20:27:54.259Z,6.70
2018-04-29T20:30:32.340Z,10.07
2018-04-29T20:33:07.539Z,5.10
2018-04-29T20:35:43.060Z,6.87
2018-04-29T20:38:20.659Z,7.97
2018-04-29T20:40:56.281Z,6.40
2018-04-29T20:43:33.783Z,5.67
2018-04-29T20:46:10.903Z,6.20
2018-04-29T20:48:45.488Z,5.77
2018-04-29T20:51:20.978Z,6.97
2018-04-29T20:53:59.057Z,6.57
2018-04-29T20:56:35.540Z,6.10
2018-04-29T20:59:13.298Z,6.03
2018-04-29T21:01:49.007Z,5.27
2018-04-29T21:04:26.578Z,5.90
2018-04-29T21:07:01.800Z,5.30
2018-04-29T21:09:40.119Z,5.43
2018-04-29T21:12:15.058Z,6.13
2018-04-29T21:14:46.241Z,10.70
2018-04-29T21:17:23.552Z,5.70
2018-04-29T21:20:01.619Z,4.97
2018-04-29T21:22:36.820Z,5.53
2018-04-29T21:25:16.035Z,5.60
2018-04-29T21:27:52.341Z,5.50
2018-04-29T21:30:30.099Z,7.20
2018-04-29T21:33:04.980Z,5.90
2018-04-29T21:35:41.779Z,5.00
2018-04-29T21:38:18.422Z,6.37
2018-04-29T21:40:55.063Z,4.83
2018-04-29T21:43:33.780Z,5.63
2018-04-29T21:46:11.539Z,4.87
2018-04-29T21:48:52.499Z,4.27
2018-04-29T21:51:27.859Z,4.70
2018-04-29T21:54:06.099Z,4.60
2018-04-29T21:56:40.600Z,5.27
2018-04-29T21:59:18.578Z,4.47
2018-04-29T22:01:55.859Z,4.50
2018-04-29T22:04:32.340Z,4.27
2018-04-29T22:07:08.819Z,4.30
2018-04-29T22:09:44.983Z,4.30
2018-04-29T22:12:22.099Z,4.60
2018-04-29T22:14:59.872Z,5.20
2018-04-29T22:17:35.059Z,4.80
2018-04-29T22:20:13.461Z,5.40
2018-04-29T22:22:48.499Z,5.20
2018-04-29T22:25:26.419Z,5.00
2018-04-29T22:28:02.261Z,4.70
2018-04-29T22:30:39.700Z,5.57
2018-04-29T22:33:15.861Z,6.00
2018-04-29T22:35:53.301Z,7.73
2018-04-29T22:38:30.421Z,5.90
2018-04-29T22:41:08.739Z,5.50
2018-04-29T22:43:43.810Z,5.70
2018-04-29T22:46:20.501Z,5.60
2018-04-29T22:48:56.981Z,5.70
2018-04-29T22:51:34.741Z,4.77
2018-04-29T22:54:10.900Z,4.70
2018-04-29T22:56:47.059Z,5.43
2018-04-29T22:59:23.859Z,4.67
2018-04-29T23:01:59.380Z,4.57
2018-04-29T23:04:36.499Z,4.50
2018-04-29T23:07:13.941Z,4.07
2018-04-29T23:09:50.579Z,5.00
2018-04-29T23:12:25.009Z,4.50
2018-04-29T23:15:00.179Z,3.43
2018-04-29T23:17:36.384Z,4.07
2018-04-29T23:20:13.461Z,4.60
2018-04-29T23:22:48.339Z,4.23
2018-04-29T23:25:24.819Z,3.63
2018-04-29T23:28:00.280Z,3.10
2018-04-29T23:30:36.819Z,3.07
2018-04-29T23:33:11.701Z,3.50
2018-04-29T23:35:48.502Z,3.53
2018-04-29T23:38:24.350Z,2.97
2018-04-29T23:41:01.234Z,3.77
2018-04-29T23:43:36.661Z,3.50
2018-04-29T23:46:12.502Z,3.20
2018-04-29T23:48:48.852Z,3.10
2018-04-29T23:51:25.940Z,3.73
2018-04-29T23:53:59.910Z,2.90
2018-04-29T23:56:38.419Z,2.67
2018-04-29T23:59:13.952Z,3.03
